sensor_id;sensor_type;location;lat;lon;timestamp;temperature;humidity
18670;DHT22;9464;44.918;9.670;2022-09-20T00:01:23;18.10;99.90
18670;DHT22;9464;44.918;9.670;2022-09-20T00:03:54;18.10;1.00
18670;DHT22;9464;44.918;9.670;2022-09-20T00:06:24;18.00;99.90
18670;DHT22;9464;44.918;9.670;2022-09-20T00:08:53;18.00;1.00
18670;DHT22;9464;44.918;9.670;2022-09-20T00:11:25;18.00;99.90
18670;DHT22;9464;44.918;9.670;2022-09-20T00:13:56;18.00;99.90
18670;DHT22;9464;44.918;9.670;2022-09-20T00:16:27;18.00;1.00
18670;DHT22;9464;44.918;9.670;2022-09-20T00:18:58;18.00;99.90
18670;DHT22;9464;44.918;9.670;2022-09-20T00:21:28;17.90;1.00
18670;DHT22;9464;44.918;9.670;2022-09-20T00:23:57;17.90;99.90
18670;DHT22;9464;44.918;9.670;2022-09-20T00:26:27;17.90;1.00
18670;DHT22;9464;44.918;9.670;2022-09-20T00:28:57;17.90;1.00
18670;DHT22;9464;44.918;9.670;2022-09-20T00:31:26;17.90;94.70
18670;DHT22;9464;44.918;9.670;2022-09-20T00:33:55;17.80;99.90
18670;DHT22;9464;44.918;9.670;2022-09-20T00:36:41;17.80;5.70
18670;DHT22;9464;44.918;9.670;2022-09-20T00:39:12;17.80;1.00
18670;DHT22;9464;44.918;9.670;2022-09-20T00:41:42;17.70;1.00
18670;DHT22;9464;44.918;9.670;2022-09-20T00:44:42;17.70;99.90
18670;DHT22;9464;44.918;9.670;2022-09-20T00:47:17;17.70;99.90
18670;DHT22;9464;44.918;9.670;2022-09-20T00:49:48;17.70;99.90
18670;DHT22;9464;44.918;9.670;2022-09-20T00:52:17;17.60;1.00
18670;DHT22;9464;44.918;9.670;2022-09-20T00:54:45;17.60;37.70
18670;DHT22;9464;44.918;9.670;2022-09-20T00:57:15;17.60;1.00
18670;DHT22;9464;44.918;9.670;2022-09-20T00:59:46;17.60;1.00
18670;DHT22;9464;44.918;9.670;2022-09-20T01:02:17;17.50;99.90
18670;DHT22;9464;44.918;9.670;2022-09-20T01:04:47;17.50;99.90
18670;DHT22;9464;44.918;9.670;2022-09-20T01:07:16;17.50;1.00
18670;DHT22;9464;44.918;9.670;2022-09-20T01:09:48;17.50;99.90
18670;DHT22;9464;44.918;9.670;2022-09-20T01:12:20;17.40;99.90
18670;DHT22;9464;44.918;9.670;2022-09-20T01:14:50;17.40;1.00
18670;DHT22;9464;44.918;9.670;2022-09-20T01:17:23;17.40;99.90
18670;DHT22;9464;44.918;9.670;2022-09-20T01:20:03;17.40;1.00
18670;DHT22;9464;44.918;9.670;2022-09-20T01:22:42;17.40;1.00
18670;DHT22;9464;44.918;9.670;2022-09-20T01:25:16;17.40;99.90
18670;DHT22;9464;44.918;9.670;2022-09-20T01:27:47;17.40;1.00
18670;DHT22;9464;44.918;9.670;2022-09-20T01:30:18;17.40;99.90
18670;DHT22;9464;44.918;9.670;2022-09-20T01:33:00;17.30;99.90
18670;DHT22;9464;44.918;9.670;2022-09-20T01:35:32;17.30;99.90
18670;DHT22;9464;44.918;9.670;2022-09-20T01:38:20;17.30;1.00
18670;DHT22;9464;44.918;9.670;2022-09-20T01:40:58;17.30;99.90
18670;DHT22;9464;44.918;9.670;2022-09-20T01:43:34;17.30;1.00
18670;DHT22;9464;44.918;9.670;2022-09-20T01:46:13;17.20;1.00
18670;DHT22;9464;44.918;9.670;2022-09-20T01:48:44;17.20;1.00
18670;DHT22;9464;44.918;9.670;2022-09-20T01:54:58;17.20;99.90
18670;DHT22;9464;44.918;9.670;2022-09-20T01:58:06;17.10;99.90
18670;DHT22;9464;44.918;9.670;2022-09-20T02:00:49;17.10;10.60
18670;DHT22;9464;44.918;9.670;2022-09-20T02:03:49;17.10;99.90
18670;DHT22;9464;44.918;9.670;2022-09-20T02:12:39;17.00;1.00
18670;DHT22;9464;44.918;9.670;2022-09-20T02:15:25;17.00;1.00
18670;DHT22;9464;44.918;9.670;2022-09-20T02:18:13;17.00;1.00
18670;DHT22;9464;44.918;9.670;2022-09-20T02:20:51;17.00;1.00
18670;DHT22;9464;44.918;9.670;2022-09-20T02:23:38;17.00;1.00
18670;DHT22;9464;44.918;9.670;2022-09-20T02:26:21;17.00;99.90
18670;DHT22;9464;44.918;9.670;2022-09-20T02:28:55;16.90;99.90
18670;DHT22;9464;44.918;9.670;2022-09-20T02:31:43;16.90;99.90
18670;DHT22;9464;44.918;9.670;2022-09-20T02:34:41;16.90;1.00
18670;DHT22;9464;44.918;9.670;2022-09-20T02:40:19;16.90;1.00
18670;DHT22;9464;44.918;9.670;2022-09-20T02:42:57;16.90;99.90
18670;DHT22;9464;44.918;9.670;2022-09-20T02:45:35;16.80;99.90
18670;DHT22;9464;44.918;9.670;2022-09-20T02:48:06;16.80;99.90
18670;DHT22;9464;44.918;9.670;2022-09-20T02:50:41;16.80;99.90
18670;DHT22;9464;44.918;9.670;2022-09-20T02:53:28;16.80;99.90
18670;DHT22;9464;44.918;9.670;2022-09-20T02:56:06;16.80;1.00
18670;DHT22;9464;44.918;9.670;2022-09-20T02:58:45;16.80;1.00
18670;DHT22;9464;44.918;9.670;2022-09-20T03:01:23;16.80;1.00
18670;DHT22;9464;44.918;9.670;2022-09-20T03:04:01;16.70;1.00
18670;DHT22;9464;44.918;9.670;2022-09-20T03:06:41;16.70;1.00
18670;DHT22;9464;44.918;9.670;2022-09-20T03:09:15;16.70;1.00
18670;DHT22;9464;44.918;9.670;2022-09-20T03:11:50;16.60;99.90
18670;DHT22;9464;44.918;9.670;2022-09-20T03:14:28;16.60;99.90
18670;DHT22;9464;44.918;9.670;2022-09-20T03:17:04;16.60;1.00
18670;DHT22;9464;44.918;9.670;2022-09-20T03:19:46;16.60;1.00
18670;DHT22;9464;44.918;9.670;2022-09-20T03:22:27;16.60;99.90
18670;DHT22;9464;44.918;9.670;2022-09-20T03:25:13;16.60;1.00
18670;DHT22;9464;44.918;9.670;2022-09-20T03:27:55;16.50;1.00
18670;DHT22;9464;44.918;9.670;2022-09-20T03:30:35;16.50;99.90
18670;DHT22;9464;44.918;9.670;2022-09-20T03:33:13;16.50;1.00
18670;DHT22;9464;44.918;9.670;2022-09-20T03:35:57;16.50;99.90
18670;DHT22;9464;44.918;9.670;2022-09-20T03:38:51;16.40;1.00
18670;DHT22;9464;44.918;9.670;2022-09-20T03:41:51;16.50;99.90
18670;DHT22;9464;44.918;9.670;2022-09-20T03:44:34;16.40;1.00
18670;DHT22;9464;44.918;9.670;2022-09-20T03:47:16;16.40;1.00
18670;DHT22;9464;44.918;9.670;2022-09-20T03:53:00;16.30;70.10
18670;DHT22;9464;44.918;9.670;2022-09-20T03:58:31;16.30;99.90
18670;DHT22;9464;44.918;9.670;2022-09-20T04:01:12;16.20;1.00
18670;DHT22;9464;44.918;9.670;2022-09-20T04:03:48;16.30;99.90
18670;DHT22;9464;44.918;9.670;2022-09-20T04:12:32;16.20;99.90
18670;DHT22;9464;44.918;9.670;2022-09-20T04:15:18;16.20;1.00
18670;DHT22;9464;44.918;9.670;2022-09-20T04:17:56;16.20;99.90
18670;DHT22;9464;44.918;9.670;2022-09-20T04:20:33;16.20;1.00
18670;DHT22;9464;44.918;9.670;2022-09-20T04:23:14;16.10;99.90
18670;DHT22;9464;44.918;9.670;2022-09-20T04:25:46;16.10;5.10
18670;DHT22;9464;44.918;9.670;2022-09-20T04:28:21;16.10;1.00
18670;DHT22;9464;44.918;9.670;2022-09-20T04:30:55;16.10;99.90
18670;DHT22;9464;44.918;9.670;2022-09-20T04:33:28;16.10;99.90
18670;DHT22;9464;44.918;9.670;2022-09-20T04:36:05;16.00;99.90
18670;DHT22;9464;44.918;9.670;2022-09-20T04:39:03;16.00;1.00
18670;DHT22;9464;44.918;9.670;2022-09-20T04:45:09;16.00;99.90
18670;DHT22;9464;44.918;9.670;2022-09-20T04:48:09;16.00;1.00
18670;DHT22;9464;44.918;9.670;2022-09-20T04:51:08;16.00;1.00
18670;DHT22;9464;44.918;9.670;2022-09-20T04:54:18;15.90;1.00
18670;DHT22;9464;44.918;9.670;2022-09-20T04:57:07;15.90;1.00
18670;DHT22;9464;44.918;9.670;2022-09-20T04:59:53;15.90;99.90
18670;DHT22;9464;44.918;9.670;2022-09-20T05:02:43;15.80;99.90
18670;DHT22;9464;44.918;9.670;2022-09-20T05:05:43;15.80;1.00
18670;DHT22;9464;44.918;9.670;2022-09-20T05:08:58;15.80;1.00
18670;DHT22;9464;44.918;9.670;2022-09-20T05:11:55;15.80;99.90
18670;DHT22;9464;44.918;9.670;2022-09-20T05:15:08;15.80;99.90
18670;DHT22;9464;44.918;9.670;2022-09-20T05:17:55;15.80;1.00
18670;DHT22;9464;44.918;9.670;2022-09-20T05:20:49;15.70;1.00
18670;DHT22;9464;44.918;9.670;2022-09-20T05:23:47;15.80;99.90
18670;DHT22;9464;44.918;9.670;2022-09-20T05:26:25;15.70;99.90
18670;DHT22;9464;44.918;9.670;2022-09-20T05:29:00;15.80;1.00
18670;DHT22;9464;44.918;9.670;2022-09-20T05:31:36;15.80;1.00
18670;DHT22;9464;44.918;9.670;2022-09-20T05:34:13;15.80;1.00
18670;DHT22;9464;44.918;9.670;2022-09-20T05:36:53;15.80;99.90
18670;DHT22;9464;44.918;9.670;2022-09-20T05:39:32;15.80;99.90
18670;DHT22;9464;44.918;9.670;2022-09-20T05:42:12;15.80;1.00
18670;DHT22;9464;44.918;9.670;2022-09-20T05:44:54;15.80;1.00
18670;DHT22;9464;44.918;9.670;2022-09-20T05:47:34;15.90;1.00
18670;DHT22;9464;44.918;9.670;2022-09-20T05:56:13;15.90;1.00
18670;DHT22;9464;44.918;9.670;2022-09-20T05:59:00;15.90;1.00
18670;DHT22;9464;44.918;9.670;2022-09-20T06:01:40;16.00;1.00
18670;DHT22;9464;44.918;9.670;2022-09-20T06:04:14;16.00;1.00
18670;DHT22;9464;44.918;9.670;2022-09-20T06:06:56;16.00;99.90
18670;DHT22;9464;44.918;9.670;2022-09-20T06:09:38;16.10;99.90
18670;DHT22;9464;44.918;9.670;2022-09-20T06:12:32;16.10;1.00
18670;DHT22;9464;44.918;9.670;2022-09-20T06:15:15;16.20;99.90
18670;DHT22;9464;44.918;9.670;2022-09-20T06:17:55;16.20;99.90
18670;DHT22;9464;44.918;9.670;2022-09-20T06:20:28;16.20;99.90
18670;DHT22;9464;44.918;9.670;2022-09-20T06:22:59;16.30;1.00
18670;DHT22;9464;44.918;9.670;2022-09-20T06:25:36;16.30;1.00
18670;DHT22;9464;44.918;9.670;2022-09-20T06:28:12;16.40;1.00
18670;DHT22;9464;44.918;9.670;2022-09-20T06:30:45;16.40;1.00
18670;DHT22;9464;44.918;9.670;2022-09-20T06:33:15;16.40;1.00
18670;DHT22;9464;44.918;9.670;2022-09-20T06:35:47;16.50;1.00
18670;DHT22;9464;44.918;9.670;2022-09-20T06:38:34;16.50;1.00
18670;DHT22;9464;44.918;9.670;2022-09-20T06:41:22;16.50;99.90
18670;DHT22;9464;44.918;9.670;2022-09-20T06:43:54;16.60;1.00
18670;DHT22;9464;44.918;9.670;2022-09-20T06:46:26;16.60;1.00
18670;DHT22;9464;44.918;9.670;2022-09-20T06:48:55;16.70;1.00
18670;DHT22;9464;44.918;9.670;2022-09-20T06:51:25;16.70;99.90
18670;DHT22;9464;44.918;9.670;2022-09-20T06:53:56;16.70;99.90
18670;DHT22;9464;44.918;9.670;2022-09-20T06:56:26;16.80;1.00
18670;DHT22;9464;44.918;9.670;2022-09-20T06:58:55;16.70;1.00
18670;DHT22;9464;44.918;9.670;2022-09-20T07:01:23;16.70;99.90
18670;DHT22;9464;44.918;9.670;2022-09-20T07:03:56;16.80;1.00
18670;DHT22;9464;44.918;9.670;2022-09-20T07:06:25;16.80;99.90
18670;DHT22;9464;44.918;9.670;2022-09-20T07:08:56;16.90;1.00
18670;DHT22;9464;44.918;9.670;2022-09-20T07:11:24;16.90;1.00
18670;DHT22;9464;44.918;9.670;2022-09-20T07:13:54;17.00;1.00
18670;DHT22;9464;44.918;9.670;2022-09-20T07:16:23;17.00;1.00
18670;DHT22;9464;44.918;9.670;2022-09-20T07:18:53;17.00;1.00
18670;DHT22;9464;44.918;9.670;2022-09-20T07:21:23;16.80;1.00
18670;DHT22;9464;44.918;9.670;2022-09-20T07:23:51;16.80;1.00
18670;DHT22;9464;44.918;9.670;2022-09-20T07:26:23;16.80;1.00
18670;DHT22;9464;44.918;9.670;2022-09-20T07:28:51;16.80;1.00
18670;DHT22;9464;44.918;9.670;2022-09-20T07:31:21;16.80;99.90
18670;DHT22;9464;44.918;9.670;2022-09-20T07:33:50;16.90;99.90
18670;DHT22;9464;44.918;9.670;2022-09-20T07:36:18;17.00;1.00
18670;DHT22;9464;44.918;9.670;2022-09-20T07:38:48;17.00;99.90
18670;DHT22;9464;44.918;9.670;2022-09-20T07:41:17;17.00;99.90
18670;DHT22;9464;44.918;9.670;2022-09-20T07:43:46;17.00;99.90
18670;DHT22;9464;44.918;9.670;2022-09-20T07:46:16;17.00;99.90
18670;DHT22;9464;44.918;9.670;2022-09-20T07:48:49;16.90;99.90
18670;DHT22;9464;44.918;9.670;2022-09-20T07:51:18;16.90;1.00
18670;DHT22;9464;44.918;9.670;2022-09-20T07:53:46;16.90;99.90
18670;DHT22;9464;44.918;9.670;2022-09-20T07:56:15;16.90;1.00
18670;DHT22;9464;44.918;9.670;2022-09-20T07:58:45;16.90;1.00
18670;DHT22;9464;44.918;9.670;2022-09-20T08:01:18;16.90;1.00
18670;DHT22;9464;44.918;9.670;2022-09-20T08:03:49;17.00;1.00
18670;DHT22;9464;44.918;9.670;2022-09-20T08:06:18;17.00;1.00
18670;DHT22;9464;44.918;9.670;2022-09-20T08:08:47;17.00;1.00
18670;DHT22;9464;44.918;9.670;2022-09-20T08:11:17;16.90;99.90
18670;DHT22;9464;44.918;9.670;2022-09-20T08:13:49;16.70;1.00
18670;DHT22;9464;44.918;9.670;2022-09-20T08:16:37;16.80;1.00
18670;DHT22;9464;44.918;9.670;2022-09-20T08:19:06;16.90;99.90
18670;DHT22;9464;44.918;9.670;2022-09-20T08:21:35;16.90;1.00
18670;DHT22;9464;44.918;9.670;2022-09-20T08:24:05;16.80;1.00
18670;DHT22;9464;44.918;9.670;2022-09-20T08:26:33;16.80;1.00
18670;DHT22;9464;44.918;9.670;2022-09-20T08:29:04;16.90;1.00
18670;DHT22;9464;44.918;9.670;2022-09-20T08:31:35;16.90;1.00
18670;DHT22;9464;44.918;9.670;2022-09-20T08:34:05;16.90;99.90
18670;DHT22;9464;44.918;9.670;2022-09-20T08:36:37;16.80;1.00
18670;DHT22;9464;44.918;9.670;2022-09-20T08:39:07;16.90;99.90
18670;DHT22;9464;44.918;9.670;2022-09-20T08:41:59;17.00;1.00
18670;DHT22;9464;44.918;9.670;2022-09-20T08:44:33;17.00;1.00
18670;DHT22;9464;44.918;9.670;2022-09-20T08:47:05;17.00;1.00
18670;DHT22;9464;44.918;9.670;2022-09-20T08:49:36;17.00;1.00
18670;DHT22;9464;44.918;9.670;2022-09-20T08:52:14;17.10;1.00
18670;DHT22;9464;44.918;9.670;2022-09-20T08:54:43;17.10;1.00
18670;DHT22;9464;44.918;9.670;2022-09-20T08:57:15;17.10;1.00
18670;DHT22;9464;44.918;9.670;2022-09-20T08:59:45;17.10;1.00
18670;DHT22;9464;44.918;9.670;2022-09-20T09:02:15;17.10;1.00
18670;DHT22;9464;44.918;9.670;2022-09-20T09:04:44;17.20;1.00
18670;DHT22;9464;44.918;9.670;2022-09-20T09:07:16;17.20;1.00
18670;DHT22;9464;44.918;9.670;2022-09-20T09:09:46;17.10;1.00
18670;DHT22;9464;44.918;9.670;2022-09-20T09:12:20;17.20;99.90
18670;DHT22;9464;44.918;9.670;2022-09-20T09:14:52;17.20;1.00
18670;DHT22;9464;44.918;9.670;2022-09-20T09:17:26;17.30;99.90
18670;DHT22;9464;44.918;9.670;2022-09-20T09:19:56;17.30;1.00
18670;DHT22;9464;44.918;9.670;2022-09-20T09:22:28;17.30;99.90
18670;DHT22;9464;44.918;9.670;2022-09-20T09:25:21;17.40;1.00
18670;DHT22;9464;44.918;9.670;2022-09-20T09:27:52;17.50;99.90
18670;DHT22;9464;44.918;9.670;2022-09-20T09:30:25;17.50;99.90
18670;DHT22;9464;44.918;9.670;2022-09-20T09:33:15;17.50;1.00
18670;DHT22;9464;44.918;9.670;2022-09-20T09:35:52;17.60;1.00
18670;DHT22;9464;44.918;9.670;2022-09-20T09:38:22;17.70;99.90
18670;DHT22;9464;44.918;9.670;2022-09-20T09:40:53;17.70;1.00
18670;DHT22;9464;44.918;9.670;2022-09-20T09:43:23;17.80;1.00
18670;DHT22;9464;44.918;9.670;2022-09-20T09:45:55;17.80;1.00
18670;DHT22;9464;44.918;9.670;2022-09-20T09:48:25;17.90;1.00
18670;DHT22;9464;44.918;9.670;2022-09-20T09:51:09;17.90;99.90
18670;DHT22;9464;44.918;9.670;2022-09-20T09:53:38;18.00;1.00
18670;DHT22;9464;44.918;9.670;2022-09-20T09:56:30;17.90;99.90
18670;DHT22;9464;44.918;9.670;2022-09-20T09:59:13;18.00;99.90
18670;DHT22;9464;44.918;9.670;2022-09-20T10:01:52;18.00;1.00
18670;DHT22;9464;44.918;9.670;2022-09-20T10:04:28;18.00;1.00
18670;DHT22;9464;44.918;9.670;2022-09-20T10:07:04;18.00;1.00
18670;DHT22;9464;44.918;9.670;2022-09-20T10:10:01;18.00;1.00
18670;DHT22;9464;44.918;9.670;2022-09-20T10:12:45;18.10;99.90
18670;DHT22;9464;44.918;9.670;2022-09-20T10:15:28;18.10;99.90
18670;DHT22;9464;44.918;9.670;2022-09-20T10:18:17;18.20;12.20
18670;DHT22;9464;44.918;9.670;2022-09-20T10:21:01;18.20;1.00
18670;DHT22;9464;44.918;9.670;2022-09-20T10:23:52;18.30;99.90
18670;DHT22;9464;44.918;9.670;2022-09-20T10:26:42;18.30;99.90
18670;DHT22;9464;44.918;9.670;2022-09-20T10:29:18;18.40;99.90
18670;DHT22;9464;44.918;9.670;2022-09-20T10:31:58;18.50;99.90
18670;DHT22;9464;44.918;9.670;2022-09-20T10:34:52;18.60;99.90
18670;DHT22;9464;44.918;9.670;2022-09-20T10:37:29;18.60;1.00
18670;DHT22;9464;44.918;9.670;2022-09-20T10:40:06;18.60;99.90
18670;DHT22;9464;44.918;9.670;2022-09-20T10:42:43;18.60;99.90
18670;DHT22;9464;44.918;9.670;2022-09-20T10:45:35;18.60;91.80
18670;DHT22;9464;44.918;9.670;2022-09-20T10:48:30;18.60;99.90
18670;DHT22;9464;44.918;9.670;2022-09-20T10:51:05;18.70;99.90
18670;DHT22;9464;44.918;9.670;2022-09-20T10:53:42;18.80;99.90
18670;DHT22;9464;44.918;9.670;2022-09-20T10:56:23;18.80;1.00
18670;DHT22;9464;44.918;9.670;2022-09-20T10:59:17;18.90;99.90
18670;DHT22;9464;44.918;9.670;2022-09-20T11:01:57;18.90;99.90
18670;DHT22;9464;44.918;9.670;2022-09-20T11:04:55;19.00;15.50
18670;DHT22;9464;44.918;9.670;2022-09-20T11:07:40;19.10;13.30
18670;DHT22;9464;44.918;9.670;2022-09-20T11:10:15;19.20;1.00
18670;DHT22;9464;44.918;9.670;2022-09-20T11:12:49;19.20;99.90
18670;DHT22;9464;44.918;9.670;2022-09-20T11:15:24;19.20;99.90
18670;DHT22;9464;44.918;9.670;2022-09-20T11:17:59;19.20;76.50
18670;DHT22;9464;44.918;9.670;2022-09-20T11:20:34;19.20;1.00
18670;DHT22;9464;44.918;9.670;2022-09-20T11:23:11;19.30;99.90
18670;DHT22;9464;44.918;9.670;2022-09-20T11:25:44;19.30;99.90
18670;DHT22;9464;44.918;9.670;2022-09-20T11:28:18;19.40;1.00
18670;DHT22;9464;44.918;9.670;2022-09-20T11:30:53;19.50;99.90
18670;DHT22;9464;44.918;9.670;2022-09-20T11:33:26;19.60;99.90
18670;DHT22;9464;44.918;9.670;2022-09-20T11:35:57;19.60;99.90
18670;DHT22;9464;44.918;9.670;2022-09-20T11:38:33;19.70;1.00
18670;DHT22;9464;44.918;9.670;2022-09-20T11:41:07;19.70;99.90
18670;DHT22;9464;44.918;9.670;2022-09-20T11:43:38;19.70;99.90
18670;DHT22;9464;44.918;9.670;2022-09-20T11:46:11;19.70;99.90
18670;DHT22;9464;44.918;9.670;2022-09-20T11:48:43;19.80;99.90
18670;DHT22;9464;44.918;9.670;2022-09-20T11:54:41;19.90;99.90
18670;DHT22;9464;44.918;9.670;2022-09-20T11:57:18;19.90;1.00
18670;DHT22;9464;44.918;9.670;2022-09-20T11:59:50;19.90;99.90
18670;DHT22;9464;44.918;9.670;2022-09-20T12:02:31;19.90;30.20
18670;DHT22;9464;44.918;9.670;2022-09-20T12:05:03;20.00;99.90
18670;DHT22;9464;44.918;9.670;2022-09-20T12:07:34;20.00;36.10
18670;DHT22;9464;44.918;9.670;2022-09-20T12:10:17;20.00;99.90
18670;DHT22;9464;44.918;9.670;2022-09-20T12:12:48;20.10;1.00
18670;DHT22;9464;44.918;9.670;2022-09-20T12:15:28;20.00;1.00
18670;DHT22;9464;44.918;9.670;2022-09-20T12:18:34;20.10;99.90
18670;DHT22;9464;44.918;9.670;2022-09-20T12:21:08;20.20;99.90
18670;DHT22;9464;44.918;9.670;2022-09-20T12:24:18;20.20;99.90
18670;DHT22;9464;44.918;9.670;2022-09-20T12:26:50;20.20;99.90
18670;DHT22;9464;44.918;9.670;2022-09-20T12:29:53;20.20;1.00
18670;DHT22;9464;44.918;9.670;2022-09-20T12:32:49;20.30;99.90
18670;DHT22;9464;44.918;9.670;2022-09-20T12:41:50;20.50;99.90
18670;DHT22;9464;44.918;9.670;2022-09-20T12:44:25;20.50;99.90
18670;DHT22;9464;44.918;9.670;2022-09-20T12:46:57;20.60;99.90
18670;DHT22;9464;44.918;9.670;2022-09-20T12:49:48;20.60;99.90
18670;DHT22;9464;44.918;9.670;2022-09-20T12:52:49;20.70;99.90
18670;DHT22;9464;44.918;9.670;2022-09-20T12:55:33;20.70;99.90
18670;DHT22;9464;44.918;9.670;2022-09-20T12:58:16;20.70;99.90
18670;DHT22;9464;44.918;9.670;2022-09-20T13:00:47;20.70;99.90
18670;DHT22;9464;44.918;9.670;2022-09-20T13:03:26;20.70;1.00
18670;DHT22;9464;44.918;9.670;2022-09-20T13:06:21;20.80;1.00
18670;DHT22;9464;44.918;9.670;2022-09-20T13:08:54;20.80;1.00
18670;DHT22;9464;44.918;9.670;2022-09-20T13:11:26;20.80;1.00
18670;DHT22;9464;44.918;9.670;2022-09-20T13:13:58;20.90;1.00
18670;DHT22;9464;44.918;9.670;2022-09-20T13:16:41;20.90;1.00
18670;DHT22;9464;44.918;9.670;2022-09-20T13:19:15;20.90;1.00
18670;DHT22;9464;44.918;9.670;2022-09-20T13:21:51;20.90;99.90
18670;DHT22;9464;44.918;9.670;2022-09-20T13:24:23;20.90;99.90
18670;DHT22;9464;44.918;9.670;2022-09-20T13:26:54;20.90;99.90
18670;DHT22;9464;44.918;9.670;2022-09-20T13:29:30;20.90;1.00
18670;DHT22;9464;44.918;9.670;2022-09-20T13:32:14;21.00;1.00
18670;DHT22;9464;44.918;9.670;2022-09-20T13:34:42;21.00;99.90
18670;DHT22;9464;44.918;9.670;2022-09-20T13:37:16;21.00;99.90
18670;DHT22;9464;44.918;9.670;2022-09-20T13:39:52;21.00;1.00
18670;DHT22;9464;44.918;9.670;2022-09-20T13:42:21;21.00;1.00
18670;DHT22;9464;44.918;9.670;2022-09-20T13:44:51;21.10;99.90
18670;DHT22;9464;44.918;9.670;2022-09-20T13:47:21;21.10;99.90
18670;DHT22;9464;44.918;9.670;2022-09-20T13:49:50;21.10;1.00
18670;DHT22;9464;44.918;9.670;2022-09-20T13:52:29;21.10;72.40
18670;DHT22;9464;44.918;9.670;2022-09-20T13:54:58;21.20;1.00
18670;DHT22;9464;44.918;9.670;2022-09-20T13:57:28;21.20;1.00
18670;DHT22;9464;44.918;9.670;2022-09-20T13:59:58;21.20;1.00
18670;DHT22;9464;44.918;9.670;2022-09-20T14:02:30;21.20;99.90
18670;DHT22;9464;44.918;9.670;2022-09-20T14:05:00;21.30;99.90
18670;DHT22;9464;44.918;9.670;2022-09-20T14:07:29;21.30;1.00
18670;DHT22;9464;44.918;9.670;2022-09-20T14:09:58;21.30;1.00
18670;DHT22;9464;44.918;9.670;2022-09-20T14:12:26;21.30;1.00
18670;DHT22;9464;44.918;9.670;2022-09-20T14:14:55;21.40;1.00
18670;DHT22;9464;44.918;9.670;2022-09-20T14:17:26;21.40;1.00
18670;DHT22;9464;44.918;9.670;2022-09-20T14:19:59;21.40;68.00
18670;DHT22;9464;44.918;9.670;2022-09-20T14:22:28;21.40;1.00
18670;DHT22;9464;44.918;9.670;2022-09-20T14:24:59;21.40;48.80
18670;DHT22;9464;44.918;9.670;2022-09-20T14:27:28;21.40;99.90
18670;DHT22;9464;44.918;9.670;2022-09-20T14:29:57;21.40;99.90
18670;DHT22;9464;44.918;9.670;2022-09-20T14:32:36;21.40;1.00
18670;DHT22;9464;44.918;9.670;2022-09-20T14:35:11;21.40;1.00
18670;DHT22;9464;44.918;9.670;2022-09-20T14:37:43;21.40;1.00
18670;DHT22;9464;44.918;9.670;2022-09-20T14:40:23;21.40;99.90
18670;DHT22;9464;44.918;9.670;2022-09-20T14:42:57;21.40;1.00
18670;DHT22;9464;44.918;9.670;2022-09-20T14:45:28;21.40;1.00
18670;DHT22;9464;44.918;9.670;2022-09-20T14:48:01;21.40;99.90
18670;DHT22;9464;44.918;9.670;2022-09-20T14:50:38;21.50;99.90
18670;DHT22;9464;44.918;9.670;2022-09-20T14:53:21;21.50;1.00
18670;DHT22;9464;44.918;9.670;2022-09-20T14:56:06;21.50;1.00
18670;DHT22;9464;44.918;9.670;2022-09-20T14:59:03;21.50;1.00
18670;DHT22;9464;44.918;9.670;2022-09-20T15:01:34;21.50;99.90
18670;DHT22;9464;44.918;9.670;2022-09-20T15:04:09;21.50;1.00
18670;DHT22;9464;44.918;9.670;2022-09-20T15:06:44;21.50;99.90
18670;DHT22;9464;44.918;9.670;2022-09-20T15:09:13;21.50;99.90
18670;DHT22;9464;44.918;9.670;2022-09-20T15:11:41;21.50;99.90
18670;DHT22;9464;44.918;9.670;2022-09-20T15:14:10;21.50;1.00
18670;DHT22;9464;44.918;9.670;2022-09-20T15:16:38;21.50;99.90
18670;DHT22;9464;44.918;9.670;2022-09-20T15:19:08;21.50;1.00
18670;DHT22;9464;44.918;9.670;2022-09-20T15:21:36;21.50;1.00
18670;DHT22;9464;44.918;9.670;2022-09-20T15:24:04;21.50;1.00
18670;DHT22;9464;44.918;9.670;2022-09-20T15:26:33;21.40;99.90
18670;DHT22;9464;44.918;9.670;2022-09-20T15:29:01;21.40;1.00
18670;DHT22;9464;44.918;9.670;2022-09-20T15:31:29;21.50;1.00
18670;DHT22;9464;44.918;9.670;2022-09-20T15:33:57;21.50;99.90
18670;DHT22;9464;44.918;9.670;2022-09-20T15:36:27;21.50;1.00
18670;DHT22;9464;44.918;9.670;2022-09-20T15:38:57;21.50;1.00
18670;DHT22;9464;44.918;9.670;2022-09-20T15:41:26;21.50;1.00
18670;DHT22;9464;44.918;9.670;2022-09-20T15:43:57;21.50;1.00
18670;DHT22;9464;44.918;9.670;2022-09-20T15:46:25;21.50;1.00
18670;DHT22;9464;44.918;9.670;2022-09-20T15:48:54;21.50;99.90
18670;DHT22;9464;44.918;9.670;2022-09-20T15:51:22;21.50;99.90
18670;DHT22;9464;44.918;9.670;2022-09-20T15:53:55;21.50;1.00
18670;DHT22;9464;44.918;9.670;2022-09-20T15:56:25;21.60;99.90
18670;DHT22;9464;44.918;9.670;2022-09-20T15:58:55;21.60;99.90
18670;DHT22;9464;44.918;9.670;2022-09-20T16:01:25;21.50;99.90
18670;DHT22;9464;44.918;9.670;2022-09-20T16:03:55;21.50;1.00
18670;DHT22;9464;44.918;9.670;2022-09-20T16:06:24;21.50;91.60
18670;DHT22;9464;44.918;9.670;2022-09-20T16:08:54;21.50;1.00
18670;DHT22;9464;44.918;9.670;2022-09-20T16:11:22;21.40;1.00
18670;DHT22;9464;44.918;9.670;2022-09-20T16:13:54;21.50;99.90
18670;DHT22;9464;44.918;9.670;2022-09-20T16:16:24;21.50;1.00
18670;DHT22;9464;44.918;9.670;2022-09-20T16:18:52;21.50;1.00
18670;DHT22;9464;44.918;9.670;2022-09-20T16:21:39;21.60;1.00
18670;DHT22;9464;44.918;9.670;2022-09-20T16:24:09;21.60;1.00
18670;DHT22;9464;44.918;9.670;2022-09-20T16:26:39;21.60;1.00
18670;DHT22;9464;44.918;9.670;2022-09-20T16:29:08;21.60;1.00
18670;DHT22;9464;44.918;9.670;2022-09-20T16:31:38;21.60;99.90
18670;DHT22;9464;44.918;9.670;2022-09-20T16:34:12;21.60;99.90
18670;DHT22;9464;44.918;9.670;2022-09-20T16:36:43;21.60;1.00
18670;DHT22;9464;44.918;9.670;2022-09-20T16:39:14;21.60;1.00
18670;DHT22;9464;44.918;9.670;2022-09-20T16:41:45;21.50;99.90
18670;DHT22;9464;44.918;9.670;2022-09-20T16:44:13;21.50;1.00
18670;DHT22;9464;44.918;9.670;2022-09-20T16:46:42;21.40;1.00
18670;DHT22;9464;44.918;9.670;2022-09-20T16:49:11;21.30;1.00
18670;DHT22;9464;44.918;9.670;2022-09-20T16:51:40;21.30;99.90
18670;DHT22;9464;44.918;9.670;2022-09-20T16:54:10;21.30;99.90
18670;DHT22;9464;44.918;9.670;2022-09-20T16:56:42;21.30;99.90
18670;DHT22;9464;44.918;9.670;2022-09-20T16:59:11;21.20;1.00
18670;DHT22;9464;44.918;9.670;2022-09-20T17:01:42;21.20;1.00
18670;DHT22;9464;44.918;9.670;2022-09-20T17:04:11;21.20;99.90
18670;DHT22;9464;44.918;9.670;2022-09-20T17:06:40;21.20;99.90
18670;DHT22;9464;44.918;9.670;2022-09-20T17:09:10;21.20;99.90
18670;DHT22;9464;44.918;9.670;2022-09-20T17:11:41;21.20;99.90
18670;DHT22;9464;44.918;9.670;2022-09-20T17:14:13;21.20;99.90
18670;DHT22;9464;44.918;9.670;2022-09-20T17:16:42;21.10;1.00
18670;DHT22;9464;44.918;9.670;2022-09-20T17:19:14;21.10;1.00
18670;DHT22;9464;44.918;9.670;2022-09-20T17:21:45;21.00;1.00
18670;DHT22;9464;44.918;9.670;2022-09-20T17:24:16;21.00;99.90
18670;DHT22;9464;44.918;9.670;2022-09-20T17:26:46;20.90;99.90
18670;DHT22;9464;44.918;9.670;2022-09-20T17:29:17;20.90;99.90
18670;DHT22;9464;44.918;9.670;2022-09-20T17:31:47;20.90;1.00
18670;DHT22;9464;44.918;9.670;2022-09-20T17:34:21;21.00;99.90
18670;DHT22;9464;44.918;9.670;2022-09-20T17:36:50;21.00;99.90